Time;durP1;ratioP1;P1;durP2;ratioP2;P2;SDS_P1;SDS_P2;PMS_P1;PMS_P2;Temp;Humidity;BMP_temperature;BMP_pressure;BME280_temperature;BME280_humidity;BME280_pressure;Samples;Min_cycle;Max_cycle;Signal;HPM_P1;HPM_P2
2022/05/30 00:00:42;;;;;;;4.88;3.15;;;5.10;99.90;;;;;;5042959;28;20040;-83
2022/05/30 00:03:08;;;;;;;3.92;2.97;;;5.00;99.90;;;;;;5035890;28;20064;-83
2022/05/30 00:05:35;;;;;;;4.95;2.97;;;5.00;99.90;;;;;;5040836;28;20037;-83
2022/05/30 00:08:01;;;;;;;3.45;2.83;;;5.00;99.90;;;;;;5021017;28;20033;-83
2022/05/30 00:10:27;;;;;;;4.40;3.13;;;4.90;99.90;;;;;;5015888;28;20157;-82
2022/05/30 00:12:55;;;;;;;4.70;3.55;;;5.00;99.90;;;;;;5030281;28;20033;-83
2022/05/30 00:15:21;;;;;;;5.18;2.88;;;4.90;99.90;;;;;;5032034;28;20026;-85
2022/05/30 00:17:47;;;;;;;3.42;2.60;;;4.90;99.90;;;;;;5030739;28;20090;-83
2022/05/30 00:20:14;;;;;;;5.68;2.88;;;4.80;99.90;;;;;;5032488;28;20112;-83
2022/05/30 00:22:40;;;;;;;5.85;2.90;;;4.90;99.90;;;;;;5023575;28;20184;-83
2022/05/30 00:25:06;;;;;;;3.55;2.80;;;4.90;99.90;;;;;;5038955;28;20651;-83
2022/05/30 00:27:32;;;;;;;6.22;3.92;;;4.80;99.90;;;;;;5037346;28;20029;-83
2022/05/30 00:29:58;;;;;;;4.68;3.05;;;4.80;99.90;;;;;;5044340;28;20051;-83
2022/05/30 00:32:24;;;;;;;14.35;3.92;;;4.70;99.90;;;;;;5036068;28;20540;-83
2022/05/30 00:34:50;;;;;;;6.03;3.92;;;4.70;99.90;;;;;;5036913;28;20116;-83
2022/05/30 00:37:16;;;;;;;5.28;3.50;;;4.60;99.90;;;;;;5037784;28;20175;-83
2022/05/30 00:39:41;;;;;;;7.38;4.75;;;4.70;99.90;;;;;;5034855;28;20060;-83
2022/05/30 00:42:09;;;;;;;9.57;4.68;;;4.60;99.90;;;;;;5037756;28;20507;-83
2022/05/30 00:44:35;;;;;;;6.35;3.88;;;4.60;99.90;;;;;;5032379;28;20021;-83
2022/05/30 00:47:00;;;;;;;4.97;3.38;;;4.60;99.90;;;;;;5033502;28;20501;-83
2022/05/30 00:49:26;;;;;;;5.35;3.88;;;4.60;99.90;;;;;;5029121;28;20037;-83
2022/05/30 00:51:55;;;;;;;6.93;4.80;;;4.50;99.90;;;;;;5024792;28;20038;-83
2022/05/30 00:54:33;;;;;;;6.18;4.30;;;4.50;99.90;;;;;;5021126;28;20037;-83
2022/05/30 00:57:19;;;;;;;6.55;4.03;;;4.50;99.90;;;;;;5036662;28;20025;-86
2022/05/30 00:59:51;;;;;;;5.85;3.63;;;4.50;99.90;;;;;;5038919;28;20069;-83
2022/05/30 01:02:18;;;;;;;5.30;3.08;;;4.60;99.90;;;;;;5042043;28;20033;-83
2022/05/30 01:07:29;;;;;;;4.97;3.28;;;4.50;99.90;;;;;;5037925;28;20045;-83
2022/05/30 01:09:56;;;;;;;5.88;3.45;;;4.40;99.90;;;;;;5039505;28;20041;-84
2022/05/30 01:12:37;;;;;;;4.53;2.90;;;4.50;99.90;;;;;;5037825;28;20112;-83
2022/05/30 01:15:05;;;;;;;4.38;2.88;;;4.40;99.90;;;;;;5033263;28;20044;-83
2022/05/30 01:17:32;;;;;;;4.68;2.95;;;4.30;99.90;;;;;;5030011;28;20087;-83
2022/05/30 01:20:23;;;;;;;5.30;3.47;;;4.30;99.90;;;;;;5037008;28;20144;-84
2022/05/30 01:22:57;;;;;;;6.03;3.35;;;4.20;99.90;;;;;;5044084;28;20405;-84
2022/05/30 01:25:50;;;;;;;4.93;3.13;;;4.20;99.90;;;;;;5037593;28;20082;-83
2022/05/30 01:28:22;;;;;;;5.35;3.60;;;4.10;99.90;;;;;;5041382;28;20033;-84
2022/05/30 01:30:49;;;;;;;4.90;3.20;;;4.20;99.90;;;;;;5052102;28;20037;-84
2022/05/30 01:33:15;;;;;;;6.95;3.78;;;4.10;99.90;;;;;;5035810;28;20025;-84
2022/05/30 01:35:42;;;;;;;5.00;3.50;;;4.00;99.90;;;;;;5025326;28;20041;-83
2022/05/30 01:38:08;;;;;;;4.05;3.22;;;4.00;99.90;;;;;;5040525;28;20108;-84
2022/05/30 01:40:33;;;;;;;6.15;3.20;;;4.00;99.90;;;;;;5038032;28;20508;-84
2022/05/30 01:42:59;;;;;;;6.63;3.67;;;4.00;99.90;;;;;;5038085;28;20052;-83
2022/05/30 01:45:26;;;;;;;5.78;3.60;;;4.00;99.90;;;;;;5031979;28;20031;-87
2022/05/30 01:47:52;;;;;;;5.63;3.40;;;4.00;99.90;;;;;;5036507;28;20033;-83
2022/05/30 01:50:18;;;;;;;4.85;3.45;;;4.00;99.90;;;;;;5030795;28;20751;-83
2022/05/30 01:52:45;;;;;;;7.13;3.70;;;4.00;99.90;;;;;;5027892;28;20037;-84
2022/05/30 01:55:11;;;;;;;8.10;3.50;;;4.00;99.90;;;;;;5041275;28;20056;-83
2022/05/30 01:57:37;;;;;;;5.35;4.15;;;3.80;99.90;;;;;;5046332;28;20072;-83
2022/05/30 02:00:05;;;;;;;5.65;4.07;;;3.80;99.90;;;;;;5040922;28;20033;-84
2022/05/30 02:02:31;;;;;;;7.05;4.18;;;3.90;99.90;;;;;;5024132;28;20029;-85
2022/05/30 02:04:56;;;;;;;7.50;4.18;;;3.90;99.90;;;;;;5041063;28;20049;-84
2022/05/30 02:07:22;;;;;;;5.82;4.32;;;4.00;99.90;;;;;;5019223;28;20025;-84
2022/05/30 02:09:47;;;;;;;6.35;4.10;;;4.00;99.90;;;;;;5037322;28;20400;-85
2022/05/30 02:12:13;;;;;;;6.00;3.83;;;3.80;99.90;;;;;;5035892;28;20607;-84
2022/05/30 02:14:40;;;;;;;5.45;3.63;;;3.80;99.90;;;;;;5036727;28;20040;-84
2022/05/30 02:17:06;;;;;;;5.80;3.78;;;3.90;99.90;;;;;;5034971;28;20044;-83
2022/05/30 02:19:38;;;;;;;5.88;4.30;;;3.80;99.90;;;;;;5034218;28;20050;-84
2022/05/30 02:22:05;;;;;;;7.00;5.00;;;3.70;99.90;;;;;;5027805;28;20100;-84
2022/05/30 02:24:31;;;;;;;16.00;4.20;;;3.70;99.90;;;;;;5039913;28;20033;-84
2022/05/30 02:26:57;;;;;;;8.30;4.60;;;3.70;99.90;;;;;;5019131;28;20060;-84
2022/05/30 02:29:23;;;;;;;5.80;4.30;;;3.60;99.90;;;;;;5038919;28;20025;-84
2022/05/30 02:31:48;;;;;;;6.00;3.70;;;3.80;99.90;;;;;;5042263;28;20041;-86
2022/05/30 02:36:58;;;;;;;6.82;4.90;;;3.90;99.90;;;;;;5038980;28;20044;-85
2022/05/30 02:39:26;;;;;;;7.72;4.68;;;3.90;99.90;;;;;;5037893;28;20029;-84
2022/05/30 02:41:52;;;;;;;8.15;4.80;;;3.90;99.90;;;;;;5028839;28;20025;-85
2022/05/30 02:44:20;;;;;;;5.95;4.88;;;4.00;99.90;;;;;;5021769;28;20033;-84
2022/05/30 02:46:47;;;;;;;6.20;4.10;;;4.00;99.90;;;;;;5025857;28;20033;-84
2022/05/30 02:49:13;;;;;;;6.50;4.60;;;4.00;99.90;;;;;;5033104;28;20096;-84
2022/05/30 02:51:39;;;;;;;7.22;4.68;;;3.90;99.90;;;;;;5028861;28;20033;-84
2022/05/30 02:54:04;;;;;;;6.57;4.90;;;3.80;99.90;;;;;;5039280;28;20669;-85
2022/05/30 02:56:30;;;;;;;5.90;4.00;;;3.80;99.90;;;;;;5028127;28;20484;-85
2022/05/30 02:59:01;;;;;;;6.20;4.22;;;3.90;99.90;;;;;;5036610;28;20052;-84
2022/05/30 03:01:27;;;;;;;6.50;5.20;;;3.70;99.90;;;;;;5039917;28;20127;-83
2022/05/30 03:03:53;;;;;;;10.38;4.72;;;3.70;99.90;;;;;;5021401;28;20033;-84
2022/05/30 03:06:19;;;;;;;26.73;5.40;;;3.60;99.90;;;;;;5031544;28;20143;-84
2022/05/30 03:08:45;;;;;;;7.63;4.22;;;3.60;99.90;;;;;;5030786;28;20018;-84
2022/05/30 03:11:11;;;;;;;25.60;6.82;;;3.70;99.90;;;;;;5029251;28;20410;-84
2022/05/30 03:13:38;;;;;;;30.90;6.15;;;3.90;99.90;;;;;;5036014;28;20037;-85
2022/05/30 03:16:04;;;;;;;53.83;7.50;;;3.70;99.90;;;;;;5031716;28;20033;-84
2022/05/30 03:18:30;;;;;;;108.07;10.32;;;3.90;99.90;;;;;;5032034;28;20029;-84
2022/05/30 03:20:55;;;;;;;8.52;4.05;;;4.10;99.90;;;;;;5028242;28;20493;-84
2022/05/30 03:23:21;;;;;;;10.68;4.45;;;4.30;99.90;;;;;;5035821;28;20041;-84
2022/05/30 03:25:47;;;;;;;30.23;4.82;;;4.30;99.90;;;;;;5032469;28;20035;-84
2022/05/30 03:28:13;;;;;;;96.22;9.98;;;4.40;99.90;;;;;;5042039;28;20029;-84
2022/05/30 03:30:39;;;;;;;65.15;6.40;;;4.30;99.90;;;;;;5043476;28;20034;-84
2022/05/30 03:33:05;;;;;;;13.27;3.88;;;4.20;99.90;;;;;;5024232;28;20030;-83
2022/05/30 03:35:31;;;;;;;62.47;5.57;;;4.20;99.90;;;;;;5038447;28;20028;-84
2022/05/30 03:37:57;;;;;;;89.40;9.93;;;4.20;99.90;;;;;;5034064;28;20033;-85
2022/05/30 03:40:24;;;;;;;111.93;8.77;;;4.20;99.90;;;;;;5035817;28;20029;-84
2022/05/30 03:42:49;;;;;;;142.43;11.02;;;4.20;99.90;;;;;;5035759;28;20762;-84
2022/05/30 03:45:15;;;;;;;125.47;9.38;;;4.30;99.90;;;;;;5031450;28;20109;-84
2022/05/30 03:47:43;;;;;;;111.18;7.80;;;4.20;99.90;;;;;;5031373;28;20040;-85
2022/05/30 03:50:12;;;;;;;88.47;8.27;;;4.20;99.90;;;;;;5030335;28;20037;-86
2022/05/30 03:52:37;;;;;;;53.33;6.97;;;4.10;99.90;;;;;;5017521;28;20029;-84
2022/05/30 03:55:06;;;;;;;103.00;9.10;;;4.20;99.90;;;;;;5045805;28;20052;-84
2022/05/30 03:57:31;;;;;;;33.63;4.47;;;4.10;99.90;;;;;;5041594;28;20025;-84
2022/05/30 03:59:57;;;;;;;36.25;6.20;;;4.00;99.90;;;;;;5019926;28;20032;-85
2022/05/30 04:02:23;;;;;;;39.88;6.88;;;4.00;99.90;;;;;;5039455;28;20029;-84
2022/05/30 04:04:48;;;;;;;15.93;6.05;;;4.10;99.90;;;;;;5033705;28;20068;-85
2022/05/30 04:07:15;;;;;;;14.68;5.70;;;4.00;99.90;;;;;;5038385;28;20032;-85
2022/05/30 04:09:40;;;;;;;17.88;5.10;;;4.00;99.90;;;;;;5028614;28;20037;-85
2022/05/30 04:12:06;;;;;;;7.63;5.10;;;4.00;99.90;;;;;;5034513;28;20039;-86
2022/05/30 04:14:32;;;;;;;8.93;5.88;;;4.10;99.90;;;;;;5028298;28;20052;-83
2022/05/30 04:16:58;;;;;;;8.07;5.50;;;4.10;99.90;;;;;;5031919;28;20476;-85
2022/05/30 04:19:23;;;;;;;8.52;5.60;;;4.20;99.90;;;;;;5030820;28;20109;-84
2022/05/30 04:21:49;;;;;;;6.93;4.85;;;4.10;99.90;;;;;;5025253;28;20034;-83
2022/05/30 04:24:15;;;;;;;8.40;5.60;;;4.10;99.90;;;;;;5039558;28;20029;-85
2022/05/30 04:26:41;;;;;;;53.05;6.72;;;4.10;99.90;;;;;;5036274;28;20041;-84
2022/05/30 04:29:07;;;;;;;31.88;7.32;;;4.20;99.90;;;;;;5039395;28;20749;-84
2022/05/30 04:31:33;;;;;;;125.82;14.98;;;4.30;99.90;;;;;;5068374;28;20037;-84
2022/05/30 04:33:59;;;;;;;185.23;16.98;;;4.30;99.90;;;;;;5043170;28;20034;-86
2022/05/30 04:36:25;;;;;;;85.30;9.95;;;4.30;99.90;;;;;;5033023;28;20037;-84
2022/05/30 04:38:50;;;;;;;40.25;8.43;;;4.40;99.90;;;;;;5020107;28;20021;-84
2022/05/30 04:41:16;;;;;;;150.70;13.52;;;4.60;99.90;;;;;;5031667;28;20587;-83
2022/05/30 04:43:42;;;;;;;24.58;7.20;;;4.70;99.90;;;;;;5028734;28;20038;-83
2022/05/30 04:46:17;;;;;;;44.33;7.10;;;4.70;99.90;;;;;;5026009;28;20056;-83
2022/05/30 04:48:43;;;;;;;21.08;6.97;;;4.90;99.90;;;;;;5026679;28;20025;-83
2022/05/30 04:51:10;;;;;;;34.95;6.88;;;4.90;99.90;;;;;;5013811;28;20032;-82
2022/05/30 04:53:36;;;;;;;11.25;5.95;;;5.10;99.90;;;;;;5026297;28;20576;-83
2022/05/30 04:56:02;;;;;;;110.05;12.35;;;5.10;99.90;;;;;;5032641;28;20033;-83
2022/05/30 04:58:28;;;;;;;15.50;6.28;;;5.20;99.90;;;;;;5031617;28;20520;-87
2022/05/30 05:00:59;;;;;;;20.30;7.05;;;5.30;99.90;;;;;;5031438;28;20045;-83
2022/05/30 05:03:27;;;;;;;137.88;14.93;;;5.20;99.90;;;;;;5031477;28;20416;-83
2022/05/30 05:06:10;;;;;;;64.88;10.95;;;5.20;99.90;;;;;;5020468;28;20170;-83
2022/05/30 05:08:43;;;;;;;7.80;5.25;;;5.00;99.90;;;;;;5059370;28;20035;-85
2022/05/30 05:11:11;;;;;;;10.90;5.97;;;5.00;99.90;;;;;;5037843;28;20052;-84
2022/05/30 05:13:37;;;;;;;10.70;6.00;;;5.00;99.90;;;;;;5035502;28;20485;-90
2022/05/30 05:16:03;;;;;;;21.85;6.93;;;5.40;99.90;;;;;;5039822;28;20025;-83
2022/05/30 05:18:29;;;;;;;8.13;5.38;;;5.60;99.90;;;;;;5034061;28;20504;-84
2022/05/30 05:20:55;;;;;;;13.90;6.07;;;5.90;99.90;;;;;;5034314;28;20064;-83
2022/05/30 05:23:20;;;;;;;9.30;5.40;;;6.00;99.90;;;;;;5058961;28;20116;-83
2022/05/30 05:25:46;;;;;;;10.00;5.35;;;6.00;99.90;;;;;;5036318;28;20541;-83
2022/05/30 05:28:12;;;;;;;16.25;7.00;;;6.00;99.90;;;;;;5032618;28;20473;-86
2022/05/30 05:30:40;;;;;;;7.60;5.97;;;6.00;99.90;;;;;;5026911;28;20462;-77
2022/05/30 05:33:06;;;;;;;8.43;6.07;;;6.00;99.90;;;;;;5038845;28;20446;-77
2022/05/30 05:35:32;;;;;;;10.15;5.80;;;5.80;99.90;;;;;;5034362;28;20018;-77
2022/05/30 05:37:57;;;;;;;8.90;5.88;;;5.80;99.90;;;;;;5036219;28;20052;-77
2022/05/30 05:40:24;;;;;;;8.80;5.80;;;6.00;99.90;;;;;;5029055;28;20645;-78
2022/05/30 05:42:49;;;;;;;11.93;6.93;;;6.20;99.90;;;;;;5029791;28;20116;-76
2022/05/30 05:45:15;;;;;;;11.20;7.22;;;6.40;99.90;;;;;;5035017;28;20116;-77
2022/05/30 05:47:41;;;;;;;8.07;5.65;;;6.40;99.90;;;;;;5015508;28;20415;-77
2022/05/30 05:50:07;;;;;;;8.65;6.25;;;6.50;99.90;;;;;;5024348;28;20037;-77
2022/05/30 05:52:32;;;;;;;8.98;6.40;;;6.50;99.90;;;;;;5019478;28;20041;-76
2022/05/30 05:54:59;;;;;;;8.55;6.50;;;6.70;99.90;;;;;;5048733;28;20812;-76
2022/05/30 05:57:27;;;;;;;9.63;6.60;;;6.80;99.90;;;;;;5044587;28;20108;-76
2022/05/30 05:59:53;;;;;;;7.97;5.70;;;6.70;99.90;;;;;;5039012;28;20061;-77
2022/05/30 06:02:19;;;;;;;9.05;5.45;;;6.50;99.90;;;;;;5033803;28;20087;-77
2022/05/30 06:04:46;;;;;;;7.78;5.53;;;6.40;99.90;;;;;;5035759;28;20025;-77
2022/05/30 06:07:12;;;;;;;7.63;5.13;;;6.50;99.90;;;;;;5040981;28;20035;-81
2022/05/30 06:09:39;;;;;;;6.28;4.80;;;6.50;99.90;;;;;;5038688;28;20444;-81
2022/05/30 06:12:07;;;;;;;5.95;4.53;;;6.80;99.90;;;;;;5033539;28;20558;-80
2022/05/30 06:14:33;;;;;;;7.10;5.63;;;7.00;99.90;;;;;;5031525;28;20049;-80
2022/05/30 06:17:00;;;;;;;7.55;5.78;;;7.00;99.90;;;;;;5034997;28;20058;-80
2022/05/30 06:19:26;;;;;;;6.00;4.30;;;7.20;99.90;;;;;;5013096;28;20120;-81
2022/05/30 06:21:52;;;;;;;6.07;4.75;;;7.10;99.90;;;;;;5029366;28;20100;-80
2022/05/30 06:24:17;;;;;;;6.57;4.70;;;7.20;99.90;;;;;;5036389;28;20060;-81
2022/05/30 06:26:46;;;;;;;6.97;4.72;;;7.30;99.90;;;;;;5037896;28;20112;-81
2022/05/30 06:29:13;;;;;;;6.75;4.45;;;7.50;99.90;;;;;;5023631;28;20053;-81
2022/05/30 06:31:40;;;;;;;8.63;4.93;;;7.50;99.90;;;;;;5038017;28;20038;-79
2022/05/30 06:34:06;;;;;;;6.40;4.63;;;7.60;99.90;;;;;;5037978;28;20138;-80
2022/05/30 06:36:32;;;;;;;5.90;4.43;;;7.70;99.90;;;;;;5032290;28;20026;-81
2022/05/30 06:38:57;;;;;;;5.80;4.03;;;7.70;99.90;;;;;;5035538;28;20472;-81
2022/05/30 06:41:29;;;;;;;7.35;4.88;;;7.90;99.90;;;;;;5028316;28;20038;-81
2022/05/30 06:44:07;;;;;;;7.82;4.95;;;7.90;99.90;;;;;;5034751;28;20519;-81
2022/05/30 06:46:37;;;;;;;6.38;5.20;;;7.70;99.90;;;;;;5012700;28;20037;-80
2022/05/30 06:49:05;;;;;;;8.40;5.10;;;8.00;99.90;;;;;;5030880;28;20091;-81
2022/05/30 06:51:34;;;;;;;9.40;5.25;;;8.20;99.90;;;;;;5032306;28;20389;-81
2022/05/30 06:54:00;;;;;;;7.00;4.90;;;8.30;99.90;;;;;;5029114;28;20033;-81
2022/05/30 06:56:29;;;;;;;7.75;5.82;;;8.50;99.90;;;;;;5038380;28;20091;-81
2022/05/30 06:58:55;;;;;;;6.75;4.95;;;8.80;99.90;;;;;;5036356;28;20041;-81
2022/05/30 07:01:25;;;;;;;8.88;5.40;;;9.00;99.90;;;;;;5029679;28;20049;-81
2022/05/30 07:03:51;;;;;;;7.78;5.78;;;9.20;99.90;;;;;;5034249;28;20028;-81
2022/05/30 07:06:23;;;;;;;7.20;5.05;;;9.50;99.90;;;;;;5037948;28;20041;-82
2022/05/30 07:08:49;;;;;;;8.02;5.32;;;9.60;99.90;;;;;;5033819;28;20337;-81
2022/05/30 07:11:17;;;;;;;5.82;4.18;;;9.60;99.90;;;;;;5032406;28;20104;-81
2022/05/30 07:13:44;;;;;;;8.68;4.90;;;9.50;99.90;;;;;;5033408;28;20115;-81
2022/05/30 07:16:10;;;;;;;6.70;4.78;;;9.60;99.90;;;;;;5029433;28;20059;-80
2022/05/30 07:18:37;;;;;;;6.85;5.13;;;9.80;99.90;;;;;;5023918;28;20021;-87
2022/05/30 07:21:06;;;;;;;6.75;5.53;;;10.10;99.90;;;;;;5023468;28;20061;-84
2022/05/30 07:23:34;;;;;;;6.13;4.50;;;10.20;99.90;;;;;;5031365;28;20026;-78
2022/05/30 07:26:02;;;;;;;7.22;5.35;;;10.30;99.90;;;;;;5035639;28;20025;-77
2022/05/30 07:28:29;;;;;;;7.45;4.25;;;10.30;99.90;;;;;;5040445;28;20021;-77
2022/05/30 07:31:09;;;;;;;5.97;4.45;;;10.40;99.90;;;;;;5040801;28;20110;-77
2022/05/30 07:33:41;;;;;;;5.25;4.07;;;10.50;99.90;;;;;;5039184;28;20047;-78
2022/05/30 07:36:19;;;;;;;6.20;4.72;;;10.60;99.90;;;;;;5030076;28;20113;-80
2022/05/30 07:38:44;;;;;;;5.10;4.07;;;10.80;99.90;;;;;;5038208;28;20033;-79
2022/05/30 07:41:10;;;;;;;7.00;4.53;;;10.80;99.90;;;;;;5034509;28;20028;-79
2022/05/30 07:43:37;;;;;;;12.45;4.10;;;10.90;99.90;;;;;;5034052;28;20109;-83
2022/05/30 07:46:05;;;;;;;7.88;3.95;;;11.10;99.90;;;;;;5035498;28;20112;-79
2022/05/30 07:48:31;;;;;;;7.32;3.83;;;11.10;99.90;;;;;;5033738;28;20017;-78
2022/05/30 07:50:58;;;;;;;4.63;3.00;;;11.30;99.90;;;;;;5032949;28;20059;-78
2022/05/30 07:53:25;;;;;;;5.05;3.80;;;11.60;99.90;;;;;;5046623;28;20036;-78
2022/05/30 07:55:51;;;;;;;5.40;3.53;;;11.60;99.90;;;;;;5045467;28;20079;-82
2022/05/30 07:58:16;;;;;;;4.15;3.40;;;11.80;99.80;;;;;;5043388;28;20065;-79
2022/05/30 08:00:42;;;;;;;4.50;3.10;;;12.10;99.90;;;;;;5036718;28;20041;-78
2022/05/30 08:03:11;;;;;;;4.15;3.15;;;12.00;97.70;;;;;;5040719;28;20033;-79
2022/05/30 08:05:43;;;;;;;4.35;3.05;;;12.20;98.90;;;;;;5033331;28;20033;-78
2022/05/30 08:08:09;;;;;;;4.18;2.85;;;12.50;94.90;;;;;;5036718;28;20021;-78
2022/05/30 08:10:35;;;;;;;3.70;3.10;;;12.60;97.70;;;;;;5027617;28;20095;-83
2022/05/30 08:13:01;;;;;;;4.65;2.78;;;12.60;96.10;;;;;;5031478;28;20465;-78
2022/05/30 08:15:26;;;;;;;6.25;2.92;;;13.00;94.30;;;;;;5029727;28;20034;-78
2022/05/30 08:17:55;;;;;;;5.68;2.70;;;13.40;94.10;;;;;;5029715;28;20029;-79
2022/05/30 08:20:22;;;;;;;4.20;2.63;;;13.60;94.00;;;;;;5007407;28;20036;-78
2022/05/30 08:22:48;;;;;;;3.15;2.53;;;13.80;89.20;;;;;;5037951;28;20114;-79
2022/05/30 08:25:15;;;;;;;2.75;2.40;;;14.00;80.60;;;;;;5044256;28;20029;-79
2022/05/30 08:27:42;;;;;;;2.72;2.20;;;14.10;93.80;;;;;;5016391;28;20121;-84
2022/05/30 08:30:10;;;;;;;2.55;1.92;;;14.40;90.90;;;;;;5040694;28;20030;-80
2022/05/30 08:32:39;;;;;;;3.13;2.45;;;14.40;84.90;;;;;;5017659;28;20072;-81
2022/05/30 08:35:05;;;;;;;3.30;1.88;;;14.40;82.20;;;;;;5034327;28;20033;-81
2022/05/30 08:37:37;;;;;;;2.42;1.83;;;14.60;75.80;;;;;;5030981;28;20067;-81
2022/05/30 08:42:52;;;;;;;2.13;1.58;;;14.80;73.90;;;;;;5032059;28;20366;-80
2022/05/30 08:45:21;;;;;;;4.10;1.70;;;15.50;73.10;;;;;;5031337;28;20475;-81
2022/05/30 08:47:56;;;;;;;3.15;2.30;;;14.90;65.20;;;;;;5027278;28;20021;-81
2022/05/30 08:50:43;;;;;;;4.22;1.98;;;14.60;72.30;;;;;;5027203;28;20037;-81
2022/05/30 08:53:51;;;;;;;2.35;1.70;;;15.10;70.00;;;;;;5039597;28;20037;-80
2022/05/30 08:56:28;;;;;;;2.90;2.38;;;15.50;70.90;;;;;;5042622;28;20029;-81
2022/05/30 08:59:09;;;;;;;2.28;1.55;;;15.60;69.60;;;;;;5032738;28;20045;-81
2022/05/30 09:01:39;;;;;;;2.47;2.15;;;16.10;64.00;;;;;;5045827;28;20037;-80
2022/05/30 09:04:17;;;;;;;2.13;1.63;;;15.80;62.20;;;;;;5028345;28;20033;-81
2022/05/30 09:07:05;;;;;;;2.50;1.77;;;15.70;62.50;;;;;;5036211;28;20057;-81
2022/05/30 09:09:40;;;;;;;3.25;1.98;;;16.10;62.30;;;;;;5061772;28;20443;-83
2022/05/30 09:12:22;;;;;;;2.38;2.03;;;16.20;64.40;;;;;;5032619;28;20033;-80
2022/05/30 09:15:11;;;;;;;2.63;2.03;;;16.70;63.00;;;;;;5029238;28;20030;-81
2022/05/30 09:18:09;;;;;;;2.03;1.83;;;16.20;66.00;;;;;;5024235;28;20040;-81
2022/05/30 09:20:36;;;;;;;1.70;1.50;;;16.50;65.60;;;;;;5029945;28;20048;-85
2022/05/30 09:23:03;;;;;;;2.40;1.48;;;16.60;62.70;;;;;;5047871;28;20033;-81
2022/05/30 09:26:01;;;;;;;3.03;2.10;;;17.10;64.20;;;;;;5042537;28;20025;-81
2022/05/30 09:28:42;;;;;;;1.63;1.50;;;17.20;60.90;;;;;;5037496;28;20083;-83
2022/05/30 09:31:17;;;;;;;;;;;17.20;56.10;;;;;;5041172;28;20061;-82
2022/05/30 09:33:46;;;;;;;3.17;2.10;;;17.30;56.90;;;;;;5037094;28;19955;-81
2022/05/30 09:36:34;;;;;;;2.30;1.80;;;17.70;54.20;;;;;;5034773;28;20022;-81
2022/05/30 09:39:05;;;;;;;3.42;2.00;;;17.40;50.70;;;;;;5034419;28;20489;-81
2022/05/30 09:41:56;;;;;;;2.30;1.70;;;16.90;52.40;;;;;;5035943;28;20029;-82
2022/05/30 09:44:26;;;;;;;3.15;1.70;;;17.40;52.40;;;;;;5032262;28;20037;-82
2022/05/30 09:46:54;;;;;;;1.85;1.75;;;17.10;55.80;;;;;;5034062;28;20488;-81
2022/05/30 09:49:39;;;;;;;2.65;1.73;;;17.10;50.80;;;;;;5030326;28;20540;-86
2022/05/30 09:52:24;;;;;;;1.65;1.20;;;17.30;58.20;;;;;;5039091;28;20035;-82
2022/05/30 09:54:51;;;;;;;2.50;1.55;;;17.60;50.20;;;;;;5047009;28;20032;-84
2022/05/30 09:57:22;;;;;;;2.83;1.42;;;17.60;48.40;;;;;;5043453;28;20181;-81
2022/05/30 09:59:50;;;;;;;2.67;1.40;;;17.70;47.80;;;;;;5043428;28;20041;-81
2022/05/30 10:02:31;;;;;;;2.15;1.58;;;17.70;46.80;;;;;;5031298;28;20026;-82
2022/05/30 10:05:12;;;;;;;3.83;1.30;;;17.80;44.40;;;;;;5032360;28;20029;-82
2022/05/30 10:07:50;;;;;;;2.15;1.40;;;18.00;44.10;;;;;;5036781;28;20112;-81
2022/05/30 10:10:26;;;;;;;1.90;1.70;;;18.60;49.90;;;;;;5032113;28;20026;-85
2022/05/30 10:13:01;;;;;;;2.40;1.67;;;18.40;51.20;;;;;;5031663;28;20041;-82
2022/05/30 10:15:29;;;;;;;2.47;1.70;;;18.60;51.30;;;;;;5031122;28;20385;-81
2022/05/30 10:17:58;;;;;;;3.65;2.10;;;18.90;48.20;;;;;;5028399;28;20026;-82
2022/05/30 10:21:00;;;;;;;2.55;1.65;;;19.30;48.40;;;;;;5027514;28;20025;-82
2022/05/30 10:29:46;;;;;;;4.18;1.75;;;18.10;45.30;;;;;;5032026;28;20763;-83
2022/05/30 10:32:32;;;;;;;3.53;1.80;;;18.60;48.10;;;;;;5040322;28;20120;-82
2022/05/30 10:35:34;;;;;;;3.55;1.77;;;19.00;44.10;;;;;;5037063;28;20555;-82
2022/05/30 10:38:20;;;;;;;2.92;1.70;;;18.90;43.70;;;;;;5032052;28;20446;-83
2022/05/30 10:41:01;;;;;;;1.40;1.30;;;19.10;44.10;;;;;;5034278;28;20024;-82
2022/05/30 10:43:42;;;;;;;1.83;1.65;;;18.20;44.20;;;;;;5025694;28;20041;-83
2022/05/30 10:46:15;;;;;;;4.50;1.95;;;18.30;44.60;;;;;;5022490;28;20025;-83
2022/05/30 10:48:57;;;;;;;2.13;1.92;;;18.10;46.80;;;;;;5032043;28;20025;-82
2022/05/30 10:51:28;;;;;;;3.47;1.85;;;18.50;45.80;;;;;;5039451;28;20021;-83
2022/05/30 10:54:14;;;;;;;2.72;1.63;;;18.80;46.80;;;;;;5063397;28;20082;-81
2022/05/30 10:56:47;;;;;;;1.73;1.63;;;19.60;42.90;;;;;;5034959;28;20048;-84
2022/05/30 10:59:50;;;;;;;2.22;1.63;;;19.60;42.50;;;;;;5031743;28;20277;-83
2022/05/30 11:02:29;;;;;;;1.50;1.40;;;19.00;42.30;;;;;;5053105;28;20065;-83
2022/05/30 11:05:06;;;;;;;2.05;1.70;;;18.20;43.90;;;;;;5067232;28;20068;-83
2022/05/30 11:08:22;;;;;;;1.67;1.50;;;17.80;44.20;;;;;;5029901;28;20030;-83
2022/05/30 11:11:01;;;;;;;1.60;1.27;;;18.00;44.50;;;;;;4977659;28;20026;-83
2022/05/30 11:13:51;;;;;;;3.17;1.35;;;17.80;44.10;;;;;;4992119;28;20035;-83
2022/05/30 11:16:38;;;;;;;1.50;1.30;;;16.90;45.90;;;;;;5019658;28;20056;-81
2022/05/30 11:19:11;;;;;;;3.17;1.70;;;16.90;46.30;;;;;;5024777;28;20511;-83
2022/05/30 11:21:48;;;;;;;2.50;1.55;;;16.80;44.90;;;;;;5024124;28;20030;-84
2022/05/30 11:24:15;;;;;;;2.05;1.20;;;17.30;43.80;;;;;;5033780;28;20400;-84
2022/05/30 11:26:59;;;;;;;2.85;1.60;;;19.40;41.50;;;;;;5019235;28;20084;-83
2022/05/30 11:29:50;;;;;;;2.83;1.50;;;19.90;39.90;;;;;;5041671;28;20029;-82
2022/05/30 11:32:54;;;;;;;5.35;2.30;;;20.70;40.20;;;;;;5062072;28;20041;-82
2022/05/30 11:35:37;;;;;;;3.08;1.70;;;21.60;38.50;;;;;;5035523;28;20018;-83
2022/05/30 11:38:36;;;;;;;2.15;1.90;;;21.90;35.70;;;;;;5035058;28;20466;-83
2022/05/30 11:41:17;;;;;;;2.72;2.13;;;22.70;34.50;;;;;;5029285;28;20089;-88
2022/05/30 11:44:30;;;;;;;2.85;1.95;;;22.00;35.20;;;;;;5031918;28;20022;-83
2022/05/30 11:47:14;;;;;;;4.38;2.13;;;22.40;34.80;;;;;;5032247;28;20064;-83
2022/05/30 11:50:09;;;;;;;1.88;1.70;;;22.40;34.00;;;;;;5032617;28;20021;-82
2022/05/30 11:53:13;;;;;;;2.67;1.98;;;22.40;33.60;;;;;;5036577;28;20167;-83
2022/05/30 11:56:08;;;;;;;2.17;1.63;;;23.00;34.30;;;;;;4975420;28;20029;-82
2022/05/30 11:59:02;;;;;;;2.58;1.58;;;23.00;34.50;;;;;;5022366;28;20472;-85
2022/05/30 12:01:29;;;;;;;2.53;1.70;;;23.60;33.60;;;;;;5036494;28;20041;-82
2022/05/30 12:04:19;;;;;;;3.38;1.90;;;23.80;30.20;;;;;;5017585;28;20049;-84
2022/05/30 12:07:06;;;;;;;2.15;1.60;;;24.80;31.80;;;;;;5027977;28;20582;-82
2022/05/30 12:09:56;;;;;;;3.83;1.65;;;24.40;34.10;;;;;;5021115;28;20061;-83
2022/05/30 12:12:32;;;;;;;4.00;1.60;;;25.00;31.80;;;;;;5032660;28;20033;-83
2022/05/30 12:15:25;;;;;;;2.17;1.98;;;24.40;30.30;;;;;;5032897;28;20078;-85
2022/05/30 12:24:28;;;;;;;2.40;1.58;;;24.60;30.20;;;;;;5041035;28;20083;-83
2022/05/30 12:27:01;;;;;;;1.50;1.40;;;25.20;29.70;;;;;;5076065;28;20122;-90
2022/05/30 12:29:38;;;;;;;2.50;1.67;;;25.70;29.40;;;;;;5032773;28;20619;-84
2022/05/30 12:32:19;;;;;;;1.88;1.60;;;24.60;32.60;;;;;;5032593;28;20079;-83
2022/05/30 12:35:10;;;;;;;2.42;1.60;;;24.40;33.80;;;;;;5036269;28;20095;-83
2022/05/30 12:37:45;;;;;;;2.45;1.70;;;24.60;34.40;;;;;;5033120;28;20080;-81
2022/05/30 12:40:26;;;;;;;2.38;1.48;;;25.20;30.70;;;;;;5032790;28;20025;-81
2022/05/30 12:43:15;;;;;;;1.50;1.40;;;24.80;31.40;;;;;;5031275;28;20400;-81
2022/05/30 12:45:56;;;;;;;3.60;2.03;;;26.00;29.00;;;;;;5026700;28;20017;-82
2022/05/30 12:48:28;;;;;;;1.63;1.52;;;25.30;31.80;;;;;;5036481;28;20115;-80
2022/05/30 12:50:53;;;;;;;1.48;1.35;;;25.70;29.90;;;;;;5023741;28;20029;-81
2022/05/30 12:53:21;;;;;;;2.42;1.58;;;24.70;32.90;;;;;;5039948;28;20025;-82
2022/05/30 12:55:52;;;;;;;2.75;1.42;;;26.20;27.70;;;;;;5047484;28;20212;-80
2022/05/30 12:58:22;;;;;;;1.92;1.38;;;26.40;25.70;;;;;;5036546;28;20054;-81
2022/05/30 13:01:07;;;;;;;1.63;1.48;;;26.10;27.60;;;;;;5026246;28;20050;-81
2022/05/30 13:03:36;;;;;;;2.50;1.50;;;27.70;27.80;;;;;;5036994;28;20040;-82
2022/05/30 13:06:10;;;;;;;2.15;1.40;;;25.20;28.20;;;;;;5035295;28;20033;-82
2022/05/30 13:08:57;;;;;;;1.55;1.40;;;24.30;26.80;;;;;;5028835;28;20065;-82
2022/05/30 13:11:34;;;;;;;3.60;1.80;;;25.50;28.40;;;;;;5028430;28;20096;-83
2022/05/30 13:14:40;;;;;;;3.83;1.60;;;26.50;26.80;;;;;;5033802;28;20033;-83
2022/05/30 13:17:16;;;;;;;1.75;1.65;;;25.90;27.20;;;;;;5042321;28;20033;-90
2022/05/30 13:19:45;;;;;;;2.05;1.52;;;26.20;28.20;;;;;;5039567;28;20033;-83
2022/05/30 13:22:12;;;;;;;1.38;1.23;;;26.60;27.60;;;;;;5036917;28;20048;-84
2022/05/30 13:24:39;;;;;;;2.40;1.40;;;27.40;27.30;;;;;;5030760;28;20021;-83
2022/05/30 13:27:05;;;;;;;1.98;1.20;;;28.30;25.60;;;;;;5030622;28;20025;-86
2022/05/30 13:29:35;;;;;;;1.50;1.35;;;27.90;25.20;;;;;;5035392;28;20029;-82
2022/05/30 13:32:04;;;;;;;1.40;1.30;;;27.90;26.50;;;;;;5038641;28;20051;-87
2022/05/30 13:34:32;;;;;;;2.38;1.30;;;28.20;24.20;;;;;;5037434;28;20017;-85